Terminal Aerodrome Forecast
Issued by NWS

Home | Current Version | Previous Version | Text Only | Print | Product List | Glossary On
Versions: 1 2 3 4 5 6 7 8 9 10 11 12 13 14 15 16 17 18 19 20 21 22
000
FTUS46 KSEW 080542
TAFBLI
TAF
KBLI 080542Z 0806/0906 17005KT P6SM SCT050
     FM080800 VRB03KT 6SM FU VV035
     FM081100 VRB03KT 3SM FU VV028
     FM081600 17008KT 6SM FU VV060
     FM081900 21008KT P6SM OVC110
     FM090200 18004KT P6SM BKN150=

USA.gov is the U.S. government's official web portal to all federal, state and local government web resources and services.